Davis Junction, Illinois
Current Conditions -  °F | °C
As of 12:06 PM on Monday 22 Dec 2014 (Local Time) from KRFD Reporting Station
Light Rain Light Rain  
Wind Chill: 27°   Ceiling: 4200
Heat Index: 35°   Visibility: 4mi
Dew Point: 31°   Wind: 10mph
Humidity: 85%   Direction: 110°ESE
Pressure: 29.77"   Gusts: NA
Location:  42.1°N, 89.09°W
Report Text: KRFD 221806Z 11009KT 4SM -RA BR BKN042 OVC049 02/M01 A2977 RMK AO2 PLE00 P0001 T00171006
Loading
Personal Weather Stations






























Interactive Weather Map New forecast layout! Learn more

10-Day Weather Forecast

Advertisements
Track Severe Weather on mobile